createdAt,value
2023-04-09T00:00:26.358Z,1.05
2023-04-09T00:02:55.614Z,1.02
2023-04-09T00:05:24.842Z,0.90
2023-04-09T00:07:53.909Z,1.00
2023-04-09T00:10:23.332Z,1.05
2023-04-09T00:12:54.560Z,1.10
2023-04-09T00:15:30.759Z,1.00
2023-04-09T00:18:01.223Z,0.88
2023-04-09T00:20:34.021Z,0.80
2023-04-09T00:23:05.768Z,0.82
2023-04-09T00:25:37.280Z,1.67
2023-04-09T00:28:06.725Z,0.77
2023-04-09T00:30:38.763Z,0.80
2023-04-09T00:33:12.125Z,0.98
2023-04-09T00:35:43.529Z,1.25
2023-04-09T00:38:15.496Z,0.88
2023-04-09T00:40:44.759Z,1.10
2023-04-09T00:43:13.789Z,1.50
2023-04-09T00:45:43.515Z,1.83
2023-04-09T00:48:16.228Z,2.25
2023-04-09T00:50:45.650Z,2.70
2023-04-09T00:53:17.297Z,1.98
2023-04-09T00:55:49.366Z,1.85
2023-04-09T00:58:21.508Z,1.70
2023-04-09T01:00:50.604Z,1.30
2023-04-09T01:03:19.974Z,1.10
2023-04-09T01:05:58.085Z,1.20
2023-04-09T01:08:34.872Z,1.25
2023-04-09T01:11:39.180Z,1.20
2023-04-09T01:14:41.126Z,1.45
2023-04-09T01:17:20.069Z,1.27
2023-04-09T01:20:02.720Z,1.30
2023-04-09T01:23:00.728Z,1.23
2023-04-09T01:26:01.313Z,1.40
2023-04-09T01:28:40.528Z,1.40
2023-04-09T01:31:21.438Z,1.33
2023-04-09T01:33:50.901Z,1.40
2023-04-09T01:36:25.705Z,1.10
2023-04-09T01:38:59.657Z,1.15
2023-04-09T01:41:34.179Z,1.10
2023-04-09T01:44:10.624Z,1.10
2023-04-09T01:46:43.181Z,1.10
2023-04-09T01:49:13.077Z,1.15
2023-04-09T01:51:42.841Z,1.27
2023-04-09T01:54:12.064Z,1.30
2023-04-09T01:56:48.729Z,2.17
2023-04-09T01:59:18.080Z,1.40
2023-04-09T02:01:49.350Z,1.63
2023-04-09T02:04:28.919Z,1.73
2023-04-09T02:07:29.954Z,1.60
2023-04-09T02:10:04.920Z,1.10
2023-04-09T02:12:58.518Z,1.30
2023-04-09T02:15:29.663Z,1.55
2023-04-09T02:17:58.735Z,1.20
2023-04-09T02:20:30.134Z,1.15
2023-04-09T02:23:02.332Z,1.20
2023-04-09T02:25:33.882Z,1.05
2023-04-09T02:28:11.779Z,1.33
2023-04-09T02:30:43.967Z,2.00
2023-04-09T02:33:13.158Z,1.80
2023-04-09T02:35:45.365Z,8.20
2023-04-09T02:38:15.426Z,9.38
2023-04-09T02:40:44.724Z,16.85
2023-04-09T02:43:14.197Z,22.25
2023-04-09T02:45:57.655Z,8.02
2023-04-09T02:48:26.878Z,4.78
2023-04-09T02:50:58.577Z,3.35
2023-04-09T02:53:29.759Z,2.28
2023-04-09T02:56:10.232Z,1.88
2023-04-09T02:58:41.037Z,9.10
2023-04-09T03:01:15.725Z,4.25
2023-04-09T03:03:48.684Z,5.68
2023-04-09T03:06:22.249Z,3.95
2023-04-09T03:08:58.964Z,2.33
2023-04-09T03:11:37.478Z,1.02
2023-04-09T03:14:16.347Z,2.38
2023-04-09T03:16:46.734Z,1.50
2023-04-09T03:19:15.676Z,1.00
2023-04-09T03:21:46.642Z,1.45
2023-04-09T03:24:16.313Z,1.42
2023-04-09T03:26:46.984Z,1.50
2023-04-09T03:29:17.619Z,1.70
2023-04-09T03:31:46.752Z,1.25
2023-04-09T03:34:20.707Z,1.60
2023-04-09T03:36:57.290Z,1.55
2023-04-09T03:39:32.498Z,1.40
2023-04-09T03:42:02.707Z,1.20
2023-04-09T03:44:41.847Z,1.25
2023-04-09T03:47:14.745Z,1.30
2023-04-09T03:49:44.117Z,1.30
2023-04-09T03:52:24.796Z,1.40
2023-04-09T03:57:30.517Z,1.58
2023-04-09T04:00:00.204Z,1.58
2023-04-09T04:02:47.512Z,1.30
2023-04-09T04:05:24.388Z,1.40
2023-04-09T04:08:06.093Z,1.50
2023-04-09T04:10:46.754Z,1.10
2023-04-09T04:13:25.631Z,1.50
2023-04-09T04:15:58.456Z,1.42
2023-04-09T04:18:34.023Z,1.30
2023-04-09T04:21:29.891Z,1.20
2023-04-09T04:24:12.728Z,1.08
2023-04-09T04:26:42.945Z,1.13
2023-04-09T04:29:15.107Z,1.17
2023-04-09T04:31:56.953Z,2.20
2023-04-09T04:34:29.837Z,3.10
2023-04-09T04:37:16.821Z,5.05
2023-04-09T04:39:45.996Z,4.88
2023-04-09T04:42:17.983Z,4.85
2023-04-09T04:44:50.675Z,6.38
2023-04-09T04:47:46.751Z,8.38
2023-04-09T04:50:16.399Z,6.93
2023-04-09T04:53:05.945Z,4.57
2023-04-09T04:55:56.797Z,2.88
2023-04-09T04:58:33.461Z,4.00
2023-04-09T05:01:07.088Z,2.85
2023-04-09T05:03:40.887Z,2.85
2023-04-09T05:06:33.104Z,3.20
2023-04-09T05:09:12.457Z,2.45
2023-04-09T05:12:03.038Z,1.70
2023-04-09T05:14:35.146Z,2.60
2023-04-09T05:17:04.962Z,2.92
2023-04-09T05:19:43.049Z,4.20
2023-04-09T05:22:18.045Z,5.50
2023-04-09T05:28:00.417Z,4.90
2023-04-09T05:30:37.149Z,4.15
2023-04-09T05:33:24.022Z,4.53
2023-04-09T05:35:55.186Z,6.35
2023-04-09T05:38:41.341Z,4.38
2023-04-09T05:41:23.105Z,1.77
2023-04-09T05:44:20.840Z,1.73
2023-04-09T05:46:53.680Z,1.50
2023-04-09T05:49:27.243Z,1.92
2023-04-09T05:52:00.083Z,1.77
2023-04-09T05:54:33.128Z,1.80
2023-04-09T05:57:03.097Z,2.10
2023-04-09T05:59:51.615Z,1.90
2023-04-09T06:02:26.781Z,2.13
2023-04-09T06:04:58.791Z,1.98
2023-04-09T06:07:28.212Z,2.47
2023-04-09T06:09:57.484Z,2.65
2023-04-09T06:12:29.737Z,2.53
2023-04-09T06:14:58.773Z,2.30
2023-04-09T06:17:33.298Z,1.92
2023-04-09T06:20:02.742Z,1.98
2023-04-09T06:22:34.705Z,1.77
2023-04-09T06:25:24.291Z,1.95
2023-04-09T06:27:53.667Z,2.00
2023-04-09T06:30:23.758Z,2.03
2023-04-09T06:32:56.105Z,1.83
2023-04-09T06:35:25.093Z,2.47
2023-04-09T06:38:02.471Z,2.28
2023-04-09T06:40:43.817Z,1.88
2023-04-09T06:43:15.871Z,2.20
2023-04-09T06:45:55.945Z,2.20
2023-04-09T06:48:34.124Z,2.10
2023-04-09T06:51:03.213Z,1.80
2023-04-09T06:53:32.523Z,2.45
2023-04-09T06:56:06.192Z,2.20
2023-04-09T06:58:35.350Z,1.75
2023-04-09T07:01:27.712Z,1.58
2023-04-09T07:04:05.554Z,1.67
2023-04-09T07:06:34.989Z,1.70
2023-04-09T07:09:04.674Z,2.10
2023-04-09T07:11:36.800Z,1.63
2023-04-09T07:14:08.415Z,1.23
2023-04-09T07:16:37.645Z,1.20
2023-04-09T07:19:08.278Z,1.20
2023-04-09T07:21:37.413Z,1.00
2023-04-09T07:24:09.189Z,1.50
2023-04-09T07:26:39.003Z,1.13
2023-04-09T07:29:11.429Z,1.33
2023-04-09T07:31:40.647Z,1.35
2023-04-09T07:34:13.061Z,1.70
2023-04-09T07:36:44.786Z,1.40
2023-04-09T07:39:13.897Z,1.35
2023-04-09T07:41:43.413Z,1.38
2023-04-09T07:44:18.561Z,1.30
2023-04-09T07:46:47.703Z,1.33
2023-04-09T07:49:18.015Z,1.25
2023-04-09T07:51:46.985Z,1.35
2023-04-09T07:54:17.428Z,1.30
2023-04-09T07:56:46.467Z,1.60
2023-04-09T07:59:18.561Z,1.45
2023-04-09T08:01:47.660Z,1.40
2023-04-09T08:04:20.024Z,1.27
2023-04-09T08:06:51.827Z,1.48
2023-04-09T08:09:26.868Z,1.10
2023-04-09T08:11:56.638Z,1.10
2023-04-09T08:14:26.680Z,1.40
2023-04-09T08:16:58.096Z,1.20
2023-04-09T08:19:27.135Z,1.42
2023-04-09T08:21:58.622Z,1.00
2023-04-09T08:24:29.747Z,1.13
2023-04-09T08:26:59.940Z,1.30
2023-04-09T08:29:35.310Z,1.20
2023-04-09T08:32:04.560Z,0.90
2023-04-09T08:34:33.479Z,1.08
2023-04-09T08:37:05.173Z,1.30
2023-04-09T08:39:34.613Z,1.23
2023-04-09T08:42:08.115Z,1.15
2023-04-09T08:44:41.792Z,0.80
2023-04-09T08:47:12.687Z,1.33
2023-04-09T08:50:08.984Z,0.90
2023-04-09T08:52:40.182Z,0.90
2023-04-09T08:55:09.771Z,1.20
2023-04-09T08:57:42.425Z,0.82
2023-04-09T09:00:20.690Z,1.25
2023-04-09T09:03:06.713Z,1.00
2023-04-09T09:05:48.661Z,1.00
2023-04-09T09:08:34.864Z,1.33
2023-04-09T09:11:03.859Z,1.00
2023-04-09T09:13:36.050Z,0.90
2023-04-09T09:16:18.586Z,0.80
2023-04-09T09:18:47.724Z,0.80
2023-04-09T09:21:18.629Z,0.70
2023-04-09T09:23:49.161Z,2.25
2023-04-09T09:26:26.762Z,0.70
2023-04-09T09:28:56.379Z,0.80
2023-04-09T09:31:25.906Z,0.70
2023-04-09T09:33:56.608Z,0.70
2023-04-09T09:36:34.687Z,0.70
2023-04-09T09:39:06.112Z,0.93
2023-04-09T09:41:35.168Z,0.90
2023-04-09T09:44:07.707Z,0.90
2023-04-09T09:46:42.034Z,0.90
2023-04-09T09:49:13.552Z,1.00
2023-04-09T09:51:43.399Z,0.90
2023-04-09T09:54:18.185Z,1.20
2023-04-09T09:56:48.135Z,3.47
2023-04-09T09:59:27.942Z,5.07
2023-04-09T10:02:08.247Z,1.73
2023-04-09T10:04:38.938Z,4.35
2023-04-09T10:07:09.086Z,3.08
2023-04-09T10:09:46.482Z,2.75
2023-04-09T10:12:15.924Z,1.80
2023-04-09T10:14:48.961Z,1.10
2023-04-09T10:17:19.507Z,1.65
2023-04-09T10:20:00.187Z,1.17
2023-04-09T10:22:33.681Z,1.45
2023-04-09T10:25:04.299Z,1.65
2023-04-09T10:27:50.512Z,1.45
2023-04-09T10:30:38.262Z,1.40
2023-04-09T10:33:20.091Z,1.27
2023-04-09T10:35:49.827Z,1.45
2023-04-09T10:38:18.770Z,1.13
2023-04-09T10:40:52.078Z,1.20
2023-04-09T10:43:23.089Z,1.27
2023-04-09T10:45:55.194Z,1.33
2023-04-09T10:48:27.503Z,1.10
2023-04-09T10:50:56.806Z,1.02
2023-04-09T10:53:27.164Z,1.23
2023-04-09T10:55:58.785Z,1.20
2023-04-09T10:58:28.181Z,1.35
2023-04-09T11:01:03.287Z,1.10
2023-04-09T11:03:42.970Z,1.30
2023-04-09T11:06:13.778Z,1.10
2023-04-09T11:08:47.997Z,1.60
2023-04-09T11:11:18.899Z,1.80
2023-04-09T11:13:48.741Z,1.10
2023-04-09T11:16:22.959Z,1.33
2023-04-09T11:18:57.073Z,1.40
2023-04-09T11:21:29.489Z,0.95
2023-04-09T11:23:59.836Z,1.17
2023-04-09T11:26:37.285Z,1.20
2023-04-09T11:29:10.545Z,1.33
2023-04-09T11:31:39.647Z,1.38
2023-04-09T11:34:13.144Z,1.20
2023-04-09T11:36:42.485Z,0.80
2023-04-09T11:39:11.783Z,1.25
2023-04-09T11:41:40.993Z,1.23
2023-04-09T11:44:10.060Z,1.17
2023-04-09T11:46:40.520Z,0.95
2023-04-09T11:49:10.406Z,0.95
2023-04-09T11:51:39.514Z,0.70
2023-04-09T11:54:12.842Z,1.30
2023-04-09T11:56:41.835Z,3.53
2023-04-09T11:59:11.444Z,1.08
2023-04-09T12:01:40.603Z,0.75
2023-04-09T12:04:10.313Z,0.90
2023-04-09T12:06:43.432Z,0.80
2023-04-09T12:09:18.666Z,0.60
2023-04-09T12:11:49.855Z,1.00
2023-04-09T12:14:19.843Z,1.17
2023-04-09T12:16:58.266Z,0.80
2023-04-09T12:19:28.851Z,1.00
2023-04-09T12:22:03.905Z,0.75
2023-04-09T12:24:33.042Z,0.90
2023-04-09T12:27:08.382Z,0.90
2023-04-09T12:29:37.726Z,1.40
2023-04-09T12:32:07.224Z,1.00
2023-04-09T12:34:36.810Z,0.80
2023-04-09T12:37:05.836Z,0.70
2023-04-09T12:39:37.649Z,1.00
2023-04-09T12:42:06.893Z,0.90
2023-04-09T12:44:35.973Z,0.90
2023-04-09T12:47:05.055Z,1.00
2023-04-09T12:49:34.009Z,1.20
2023-04-09T12:52:04.382Z,1.20
2023-04-09T12:54:33.532Z,0.90
2023-04-09T12:57:03.366Z,1.13
2023-04-09T12:59:32.357Z,1.15
2023-04-09T13:02:04.477Z,0.90
2023-04-09T13:04:39.393Z,1.30
2023-04-09T13:07:13.078Z,1.40
2023-04-09T13:09:42.749Z,0.85
2023-04-09T13:12:12.298Z,0.90
2023-04-09T13:14:41.402Z,1.25
2023-04-09T13:17:12.796Z,0.98
2023-04-09T13:19:42.811Z,0.90
2023-04-09T13:22:12.125Z,0.90
2023-04-09T13:24:46.285Z,1.17
2023-04-09T13:27:17.806Z,1.27
2023-04-09T13:29:48.778Z,0.80
2023-04-09T13:32:24.449Z,1.10
2023-04-09T13:34:55.463Z,0.90
2023-04-09T13:37:26.076Z,1.13
2023-04-09T13:39:55.141Z,1.15
2023-04-09T13:42:26.635Z,1.17
2023-04-09T13:44:59.579Z,0.80
2023-04-09T13:47:33.402Z,0.98
2023-04-09T13:50:22.938Z,1.15
2023-04-09T13:52:55.225Z,1.02
2023-04-09T13:55:24.265Z,1.10
2023-04-09T13:57:53.191Z,1.00
2023-04-09T14:00:25.995Z,1.00
2023-04-09T14:02:58.280Z,1.03
2023-04-09T14:05:28.154Z,0.90
2023-04-09T14:07:57.390Z,1.00
2023-04-09T14:10:29.060Z,1.00
2023-04-09T14:12:59.018Z,1.02
2023-04-09T14:15:28.318Z,0.90
2023-04-09T14:17:57.670Z,1.10
2023-04-09T14:20:28.203Z,0.88
2023-04-09T14:22:57.753Z,1.10
2023-04-09T14:25:29.729Z,1.20
2023-04-09T14:27:58.808Z,0.93
2023-04-09T14:30:27.798Z,1.17
2023-04-09T14:32:57.227Z,0.90
2023-04-09T14:35:27.103Z,1.10
2023-04-09T14:37:56.141Z,1.00
2023-04-09T14:40:28.730Z,0.85
2023-04-09T14:43:03.540Z,0.90
2023-04-09T14:45:39.002Z,0.80
2023-04-09T14:48:25.353Z,0.82
2023-04-09T14:51:01.557Z,0.98
2023-04-09T14:53:51.488Z,0.90
2023-04-09T14:56:23.768Z,0.82
2023-04-09T14:59:00.112Z,0.80
2023-04-09T15:01:54.416Z,0.90
2023-04-09T15:04:30.541Z,0.77
2023-04-09T15:11:28.358Z,1.40
2023-04-09T15:14:00.838Z,2.72
2023-04-09T15:16:38.189Z,1.52
2023-04-09T15:19:15.006Z,1.42
2023-04-09T15:21:53.385Z,2.33
2023-04-09T15:24:23.038Z,2.17
2023-04-09T15:26:54.317Z,2.00
2023-04-09T15:29:24.744Z,2.00
2023-04-09T15:31:56.742Z,2.10
2023-04-09T15:34:31.593Z,1.38
2023-04-09T15:37:09.865Z,1.13
2023-04-09T15:39:42.096Z,1.00
2023-04-09T15:42:33.340Z,0.95
2023-04-09T15:48:17.196Z,1.00
2023-04-09T15:51:13.908Z,1.30
2023-04-09T15:53:43.135Z,1.10
2023-04-09T15:56:19.059Z,0.95
2023-04-09T15:58:54.727Z,0.80
2023-04-09T16:01:24.044Z,1.60
2023-04-09T16:03:57.983Z,0.85
2023-04-09T16:06:27.068Z,1.10
2023-04-09T16:08:56.180Z,1.10
2023-04-09T16:11:25.482Z,1.13
2023-04-09T16:13:59.998Z,1.00
2023-04-09T16:16:30.084Z,1.17
2023-04-09T16:18:59.441Z,0.90
2023-04-09T16:21:28.963Z,0.80
2023-04-09T16:23:58.310Z,0.90
2023-04-09T16:26:30.438Z,0.90
2023-04-09T16:29:08.849Z,0.70
2023-04-09T16:31:45.099Z,0.70
2023-04-09T16:34:28.474Z,0.70
2023-04-09T16:36:57.573Z,0.70
2023-04-09T16:39:27.127Z,2.17
2023-04-09T16:41:56.786Z,2.00
2023-04-09T16:44:27.546Z,1.00
2023-04-09T16:47:01.966Z,0.80
2023-04-09T16:49:35.687Z,0.80
2023-04-09T16:52:07.119Z,0.90
2023-04-09T16:54:43.637Z,0.90
2023-04-09T16:57:13.398Z,0.73
2023-04-09T16:59:46.448Z,0.70
2023-04-09T17:02:59.524Z,0.88
2023-04-09T17:06:03.608Z,0.70
2023-04-09T17:08:44.479Z,0.90
2023-04-09T17:11:21.635Z,1.00
2023-04-09T17:13:53.280Z,0.93
2023-04-09T17:16:35.577Z,0.90
2023-04-09T17:19:07.830Z,1.27
2023-04-09T17:21:40.812Z,1.05
2023-04-09T17:24:13.310Z,1.10
2023-04-09T17:26:42.612Z,1.20
2023-04-09T17:29:11.727Z,1.08
2023-04-09T17:31:40.812Z,0.93
2023-04-09T17:34:10.489Z,0.90
2023-04-09T17:37:23.649Z,0.80
2023-04-09T17:40:18.289Z,0.75
2023-04-09T17:43:35.284Z,0.90
2023-04-09T17:46:38.394Z,0.90
2023-04-09T17:49:28.870Z,0.80
2023-04-09T17:56:00.301Z,0.70
2023-04-09T17:58:37.718Z,1.10
2023-04-09T18:01:13.031Z,0.65
2023-04-09T18:04:58.850Z,0.85
2023-04-09T18:08:41.615Z,0.75
2023-04-09T18:11:41.358Z,0.70
2023-04-09T18:14:10.803Z,1.83
2023-04-09T18:16:40.854Z,0.90
2023-04-09T18:19:13.622Z,0.80
2023-04-09T18:21:45.795Z,0.77
2023-04-09T18:24:15.259Z,0.98
2023-04-09T18:26:44.299Z,1.00
2023-04-09T18:29:14.991Z,1.00
2023-04-09T18:31:44.099Z,1.05
2023-04-09T18:34:19.973Z,1.05
2023-04-09T18:37:13.984Z,1.23
2023-04-09T18:39:43.108Z,1.45
2023-04-09T18:42:17.460Z,0.90
2023-04-09T18:44:56.699Z,0.80
2023-04-09T18:47:32.529Z,1.00
2023-04-09T18:50:07.819Z,1.05
2023-04-09T18:52:50.160Z,1.00
2023-04-09T18:55:26.534Z,1.05
2023-04-09T18:57:56.918Z,1.00
2023-04-09T19:00:32.025Z,1.23
2023-04-09T19:03:05.580Z,1.30
2023-04-09T19:05:47.490Z,1.02
2023-04-09T19:08:17.404Z,1.00
2023-04-09T19:10:50.386Z,0.90
2023-04-09T19:14:10.265Z,1.10
2023-04-09T19:16:43.733Z,0.90
2023-04-09T19:22:05.523Z,0.90
2023-04-09T19:24:36.670Z,1.08
2023-04-09T19:27:10.765Z,1.10
2023-04-09T19:29:40.974Z,0.82
2023-04-09T19:32:18.544Z,0.90
2023-04-09T19:34:49.300Z,0.75
2023-04-09T19:37:51.553Z,0.90
2023-04-09T19:40:29.580Z,0.85
2023-04-09T19:43:00.085Z,1.85
2023-04-09T19:45:58.708Z,1.08
2023-04-09T19:48:28.398Z,1.30
2023-04-09T19:51:01.845Z,1.08
2023-04-09T19:53:31.839Z,1.10
2023-04-09T19:56:02.934Z,1.40
2023-04-09T19:58:33.489Z,1.10
2023-04-09T20:01:02.861Z,1.00
2023-04-09T20:03:35.678Z,1.05
2023-04-09T20:06:12.592Z,0.80
2023-04-09T20:08:42.455Z,0.80
2023-04-09T20:11:38.593Z,0.90
2023-04-09T20:14:07.917Z,1.00
2023-04-09T20:16:40.123Z,1.00
2023-04-09T20:19:38.186Z,0.75
2023-04-09T20:22:29.184Z,0.80
2023-04-09T20:25:21.740Z,0.95
2023-04-09T20:31:38.203Z,1.02
2023-04-09T20:34:10.524Z,0.82
2023-04-09T20:37:27.357Z,1.90
2023-04-09T20:40:00.162Z,1.80
2023-04-09T20:42:33.087Z,2.92
2023-04-09T20:45:02.467Z,2.60
2023-04-09T20:47:43.777Z,2.47
2023-04-09T20:50:13.115Z,3.00
2023-04-09T20:52:53.171Z,1.90
2023-04-09T20:59:04.043Z,2.20
2023-04-09T21:01:52.798Z,2.10
2023-04-09T21:07:27.116Z,2.00
2023-04-09T21:10:21.882Z,1.63
2023-04-09T21:12:53.923Z,1.30
2023-04-09T21:16:35.951Z,1.20
2023-04-09T21:20:20.929Z,1.30
2023-04-09T21:27:07.918Z,1.27
2023-04-09T21:29:56.659Z,1.17
2023-04-09T21:33:18.635Z,1.00
2023-04-09T21:35:49.805Z,0.85
2023-04-09T21:38:24.917Z,0.80
2023-04-09T21:40:54.277Z,0.70
2023-04-09T21:43:29.167Z,0.93
2023-04-09T21:46:01.146Z,0.90
2023-04-09T21:48:36.854Z,0.80
2023-04-09T21:51:19.472Z,1.02
2023-04-09T21:55:34.341Z,1.23
2023-04-09T21:58:06.741Z,1.08
2023-04-09T22:00:38.967Z,0.70
2023-04-09T22:03:09.388Z,1.40
2023-04-09T22:05:39.501Z,0.80
2023-04-09T22:08:12.845Z,0.57
2023-04-09T22:14:03.124Z,0.68
2023-04-09T22:16:41.769Z,0.60
2023-04-09T22:19:30.507Z,0.55
2023-04-09T22:22:07.877Z,0.40
2023-04-09T22:25:27.294Z,0.55
2023-04-09T22:28:36.809Z,0.52
2023-04-09T22:31:47.918Z,0.60
2023-04-09T22:35:08.315Z,0.60
2023-04-09T22:45:14.494Z,0.60
2023-04-09T22:49:04.195Z,0.57
2023-04-09T22:51:20.592Z,0.68
2023-04-09T22:53:50.013Z,0.60
2023-04-09T22:59:21.348Z,0.45
2023-04-09T23:01:54.821Z,0.70
2023-04-09T23:04:28.816Z,0.60
2023-04-09T23:07:49.642Z,0.40
2023-04-09T23:10:33.105Z,0.52
2023-04-09T23:13:12.428Z,0.57
2023-04-09T23:15:47.860Z,0.80
2023-04-09T23:19:21.957Z,0.50
2023-04-09T23:21:12.514Z,0.63
2023-04-09T23:24:34.944Z,0.50
2023-04-09T23:27:04.291Z,0.50
2023-04-09T23:29:34.310Z,0.43
2023-04-09T23:32:06.658Z,0.50
2023-04-09T23:34:58.764Z,0.50
2023-04-09T23:37:53.867Z,0.50
2023-04-09T23:40:28.318Z,0.50
2023-04-09T23:43:58.646Z,0.55
2023-04-09T23:47:09.034Z,0.50
2023-04-09T23:49:38.439Z,0.40
2023-04-09T23:52:09.044Z,0.57
2023-04-09T23:54:56.973Z,0.40
2023-04-09T23:57:52.305Z,0.40
